Time;durP1;ratioP1;P1;durP2;ratioP2;P2;SDS_P1;SDS_P2;PMS_P1;PMS_P2;Temp;Humidity;BMP_temperature;BMP_pressure;BME280_temperature;BME280_humidity;BME280_pressure;Samples;Min_cycle;Max_cycle;Signal;HPM_P1;HPM_P2
2023/10/09 00:01:44;;;;;;;50.40;11.02;;;15.00;54.80;;;;;;5052755;28;20362;-72
2023/10/09 00:04:11;;;;;;;46.85;10.60;;;15.00;54.60;;;;;;5053044;28;20041;-72
2023/10/09 00:06:37;;;;;;;48.28;10.30;;;15.00;54.30;;;;;;5053028;28;20082;-72
2023/10/09 00:09:17;;;;;;;42.00;10.02;;;15.00;54.20;;;;;;5053560;28;20021;-72
2023/10/09 00:11:44;;;;;;;47.55;10.27;;;15.10;53.90;;;;;;5053166;28;20025;-72
2023/10/09 00:14:10;;;;;;;42.45;10.02;;;15.20;53.70;;;;;;5053085;28;20063;-74
2023/10/09 00:16:43;;;;;;;40.08;10.48;;;15.10;53.80;;;;;;5053093;28;20029;-72
2023/10/09 00:19:17;;;;;;;43.33;10.15;;;15.10;53.80;;;;;;5053162;28;20063;-72
2023/10/09 00:21:47;;;;;;;39.30;9.88;;;15.10;54.00;;;;;;5053305;28;20063;-87
2023/10/09 00:24:13;;;;;;;47.17;10.30;;;15.10;55.00;;;;;;5054228;28;20029;-78
2023/10/09 00:26:48;;;;;;;40.13;9.02;;;15.10;54.50;;;;;;5035193;28;20032;-73
2023/10/09 00:29:23;;;;;;;;;;;15.10;54.30;;;;;;5053736;28;20465;-73
2023/10/09 00:32:03;;;;;;;43.28;9.68;;;15.10;54.10;;;;;;5053098;28;19928;-72
2023/10/09 00:34:29;;;;;;;42.72;9.15;;;15.00;54.30;;;;;;5052865;28;20013;-72
2023/10/09 00:36:57;;;;;;;49.42;8.93;;;15.00;54.20;;;;;;5052817;28;20410;-73
2023/10/09 00:42:06;;;;;;;37.35;9.68;;;15.00;54.20;;;;;;5053656;28;20021;-86
2023/10/09 00:44:38;;;;;;;41.20;10.13;;;15.00;54.50;;;;;;5054524;28;20516;-71
2023/10/09 00:47:20;;;;;;;35.33;8.82;;;15.00;54.60;;;;;;5054670;28;20052;-87
2023/10/09 00:49:49;;;;;;;46.15;9.10;;;14.90;54.90;;;;;;5054782;28;20061;-72
2023/10/09 00:52:23;;;;;;;52.25;10.02;;;14.90;54.90;;;;;;5053237;28;20028;-70
2023/10/09 00:54:51;;;;;;;36.47;9.73;;;14.90;54.90;;;;;;5034764;28;20032;-71
2023/10/09 00:57:21;;;;;;;42.58;9.38;;;14.80;55.00;;;;;;5052539;28;20032;-71
2023/10/09 00:59:59;;;;;;;48.83;9.80;;;14.90;55.10;;;;;;5035115;28;20032;-71
2023/10/09 01:02:42;;;;;;;43.67;8.48;;;14.80;55.10;;;;;;5034568;28;20048;-71
2023/10/09 01:05:20;;;;;;;41.85;10.25;;;14.80;55.40;;;;;;5052169;28;20431;-70
2023/10/09 01:07:48;;;;;;;41.10;9.90;;;14.80;55.20;;;;;;5052594;28;20049;-71
2023/10/09 01:10:16;;;;;;;43.47;9.52;;;14.80;55.20;;;;;;5052767;28;20104;-71
2023/10/09 01:12:44;;;;;;;37.97;8.43;;;14.70;55.40;;;;;;5054801;28;20017;-71
2023/10/09 01:15:36;;;;;;;37.55;8.90;;;14.80;55.30;;;;;;5056469;28;20079;-71
2023/10/09 01:17:58;;;;;;;35.85;9.55;;;14.80;55.30;;;;;;5056330;28;20452;-73
2023/10/09 01:20:30;;;;;;;33.25;8.60;;;14.70;55.40;;;;;;5057029;28;20017;-85
2023/10/09 01:22:55;;;;;;;41.35;9.18;;;14.70;55.40;;;;;;5057643;28;20374;-83
2023/10/09 01:25:21;;;;;;;42.53;9.55;;;14.80;55.50;;;;;;5056935;28;20033;-71
2023/10/09 01:27:47;;;;;;;35.10;8.93;;;14.70;55.60;;;;;;5056333;28;20461;-70
2023/10/09 01:30:13;;;;;;;41.40;8.73;;;14.70;55.90;;;;;;5056255;28;20025;-73
2023/10/09 01:32:40;;;;;;;38.67;9.07;;;14.70;55.90;;;;;;5056593;28;20462;-82
2023/10/09 01:35:19;;;;;;;33.25;7.82;;;14.60;55.90;;;;;;5056194;28;20017;-71
2023/10/09 01:37:49;;;;;;;41.75;8.05;;;14.60;55.90;;;;;;5055916;28;20112;-71
2023/10/09 01:40:36;;;;;;;38.47;9.07;;;14.60;55.80;;;;;;5056120;28;20021;-71
2023/10/09 01:43:03;;;;;;;34.08;7.82;;;14.70;56.00;;;;;;5056172;28;20412;-71
2023/10/09 01:45:29;;;;;;;34.17;8.52;;;14.60;56.20;;;;;;5055610;28;20029;-71
2023/10/09 01:47:55;;;;;;;41.55;7.82;;;14.60;56.30;;;;;;5055926;28;20028;-71
2023/10/09 01:50:31;;;;;;;29.42;7.60;;;14.60;56.40;;;;;;5055855;28;20469;-73
2023/10/09 01:52:56;;;;;;;28.27;7.57;;;14.60;56.50;;;;;;5037808;28;20392;-72
2023/10/09 01:55:40;;;;;;;39.50;8.35;;;14.60;56.40;;;;;;5037715;28;20021;-71
2023/10/09 01:58:24;;;;;;;34.45;7.60;;;14.60;56.70;;;;;;5055819;28;20025;-71
2023/10/09 02:00:53;;;;;;;34.60;7.72;;;14.60;56.90;;;;;;5055707;28;20112;-71
2023/10/09 02:03:23;;;;;;;27.08;7.63;;;14.60;57.10;;;;;;5055605;28;20099;-72
2023/10/09 02:05:50;;;;;;;26.85;7.35;;;14.50;57.10;;;;;;5055680;28;20025;-72
2023/10/09 02:08:21;;;;;;;31.58;8.65;;;14.60;57.80;;;;;;5055781;28;20025;-72
2023/10/09 02:10:47;;;;;;;32.30;7.88;;;14.60;56.90;;;;;;5038844;28;20032;-78
2023/10/09 02:13:29;;;;;;;30.85;7.82;;;14.60;56.60;;;;;;5037917;28;20021;-87
2023/10/09 02:15:59;;;;;;;27.08;7.63;;;14.60;56.70;;;;;;5057388;28;20024;-88
2023/10/09 02:19:28;;;;;;;34.28;7.15;;;14.60;57.00;;;;;;5057368;28;20024;-89
2023/10/09 02:23:41;;;;;;;24.73;5.93;;;14.60;57.00;;;;;;5056781;28;20017;-86
2023/10/09 02:26:08;;;;;;;33.35;7.85;;;14.60;56.90;;;;;;5066024;28;20039;-72
2023/10/09 02:28:34;;;;;;;36.42;7.78;;;14.60;56.90;;;;;;5075475;28;20025;-73
2023/10/09 02:31:09;;;;;;;29.45;6.80;;;14.50;57.10;;;;;;5072620;28;20029;-72
2023/10/09 02:33:36;;;;;;;29.77;7.07;;;14.50;57.30;;;;;;5039185;28;20028;-87
2023/10/09 02:36:05;;;;;;;28.77;6.13;;;14.50;57.20;;;;;;5057335;28;20025;-82
2023/10/09 02:38:35;;;;;;;28.45;6.80;;;14.60;57.00;;;;;;5058559;28;20032;-84
2023/10/09 02:43:40;;;;;;;31.45;7.38;;;14.60;57.00;;;;;;5065367;28;20024;-71
2023/10/09 02:46:20;;;;;;;25.67;6.53;;;14.60;57.20;;;;;;5069438;28;20600;-71
2023/10/09 02:48:52;;;;;;;24.60;6.43;;;14.50;57.30;;;;;;5058588;28;20017;-83
2023/10/09 02:53:52;;;;;;;29.30;6.47;;;14.50;57.50;;;;;;5039142;28;20031;-81
2023/10/09 02:56:23;;;;;;;25.95;6.32;;;14.50;57.70;;;;;;5056281;28;20092;-76
2023/10/09 02:58:52;;;;;;;25.33;6.97;;;14.50;57.70;;;;;;5055889;28;20031;-73
2023/10/09 03:01:17;;;;;;;28.02;6.45;;;14.50;57.90;;;;;;5055199;28;20021;-72
2023/10/09 03:03:46;;;;;;;22.02;6.03;;;14.40;58.00;;;;;;5054649;28;20099;-74
2023/10/09 03:06:13;;;;;;;26.45;6.13;;;14.40;58.10;;;;;;5054599;28;20033;-73
2023/10/09 03:08:42;;;;;;;31.23;6.47;;;14.40;58.40;;;;;;5055112;28;20417;-82
2023/10/09 03:11:13;;;;;;;26.95;5.85;;;14.40;58.50;;;;;;5055851;28;20021;-75
2023/10/09 03:13:43;;;;;;;26.33;6.53;;;14.30;58.70;;;;;;5061012;28;20028;-74
2023/10/09 03:16:14;;;;;;;26.17;6.32;;;14.30;59.10;;;;;;5065971;28;20047;-77
2023/10/09 03:18:40;;;;;;;31.40;6.63;;;14.30;59.20;;;;;;5060164;28;20033;-84
2023/10/09 03:21:06;;;;;;;27.33;6.18;;;14.30;59.30;;;;;;5071769;28;20103;-86
2023/10/09 03:23:32;;;;;;;25.80;6.45;;;14.30;58.90;;;;;;5071594;28;20037;-84
2023/10/09 03:25:58;;;;;;;23.90;6.00;;;14.30;58.70;;;;;;5054896;28;20135;-88
2023/10/09 03:28:24;;;;;;;25.90;6.85;;;14.30;58.50;;;;;;5055932;28;20054;-82
2023/10/09 03:30:50;;;;;;;19.90;6.25;;;14.40;58.40;;;;;;5055336;28;20087;-73
2023/10/09 03:33:17;;;;;;;29.17;5.95;;;14.40;58.40;;;;;;5054401;28;20488;-79
2023/10/09 03:35:42;;;;;;;24.23;6.13;;;14.40;58.20;;;;;;5053918;28;20497;-73
2023/10/09 03:38:18;;;;;;;26.00;5.97;;;14.40;58.30;;;;;;5056193;28;20018;-70
2023/10/09 03:40:49;;;;;;;21.20;5.97;;;14.40;58.30;;;;;;5054210;28;20020;-74
2023/10/09 03:43:15;;;;;;;22.40;5.45;;;14.40;58.40;;;;;;5053762;28;20486;-72
2023/10/09 03:45:52;;;;;;;19.95;5.75;;;14.50;58.30;;;;;;5053902;28;20036;-73
2023/10/09 03:50:47;;;;;;;18.17;5.43;;;14.40;58.60;;;;;;5054473;28;20619;-85
2023/10/09 03:53:13;;;;;;;25.40;5.72;;;14.40;58.50;;;;;;5054582;28;20037;-84
2023/10/09 03:55:40;;;;;;;19.23;5.43;;;14.50;58.60;;;;;;5053827;28;20035;-74
2023/10/09 03:58:13;;;;;;;21.70;5.07;;;14.50;58.70;;;;;;5053653;28;20121;-72
2023/10/09 04:00:45;;;;;;;21.88;5.85;;;14.50;58.80;;;;;;5035752;28;20390;-81
2023/10/09 04:03:11;;;;;;;19.08;5.05;;;14.50;58.80;;;;;;5053285;28;20041;-76
2023/10/09 04:05:38;;;;;;;21.65;5.65;;;14.50;58.70;;;;;;5053861;28;20021;-81
2023/10/09 04:08:12;;;;;;;23.90;5.10;;;14.50;58.70;;;;;;5053907;28;20025;-71
2023/10/09 04:10:46;;;;;;;25.98;6.22;;;14.50;58.50;;;;;;5053955;28;20021;-72
2023/10/09 04:13:22;;;;;;;15.40;4.70;;;14.50;58.60;;;;;;5055707;28;20108;-87
2023/10/09 04:15:53;;;;;;;;;;;14.40;59.00;;;;;;5055538;28;20124;-83
2023/10/09 04:18:28;;;;;;;20.63;5.22;;;14.40;59.10;;;;;;5055103;28;20265;-86
2023/10/09 04:23:59;;;;;;;19.38;4.82;;;14.40;59.10;;;;;;5054157;28;20040;-76
2023/10/09 04:26:25;;;;;;;24.50;5.50;;;14.40;59.30;;;;;;5053845;28;20093;-82
2023/10/09 04:28:52;;;;;;;21.75;4.78;;;14.30;59.50;;;;;;5055685;28;20027;-89
2023/10/09 04:31:19;;;;;;;24.73;5.78;;;14.30;59.50;;;;;;5056239;28;20029;-86
2023/10/09 04:33:54;;;;;;;18.38;4.80;;;14.30;59.60;;;;;;5058175;28;20112;-81
2023/10/09 04:41:51;;;;;;;21.05;5.13;;;14.50;59.50;;;;;;5053083;28;20064;-75
2023/10/09 04:44:22;;;;;;;20.73;5.50;;;14.50;59.40;;;;;;5052909;28;20063;-74
2023/10/09 04:49:49;;;;;;;28.65;5.82;;;14.80;59.50;;;;;;5053184;28;20035;-74
2023/10/09 04:57:45;;;;;;;22.80;5.47;;;15.10;58.70;;;;;;5053063;28;20032;-73
2023/10/09 05:02:56;;;;;;;20.85;5.10;;;15.10;56.30;;;;;;5052780;28;20481;-76
2023/10/09 05:08:28;;;;;;;21.67;5.20;;;15.00;56.30;;;;;;5053091;28;20112;-75
2023/10/09 05:13:42;;;;;;;20.83;5.65;;;15.10;56.20;;;;;;5052736;28;20056;-76
2023/10/09 05:16:26;;;;;;;23.73;5.00;;;15.20;56.10;;;;;;5052978;28;20041;-74
2023/10/09 05:18:56;;;;;;;22.00;5.60;;;15.20;55.90;;;;;;5052520;28;20048;-75
2023/10/09 05:27:17;;;;;;;19.08;5.78;;;15.10;56.30;;;;;;5072552;28;20017;-80
2023/10/09 05:30:12;;;;;;;20.48;6.40;;;15.10;56.40;;;;;;5072652;28;20408;-77
2023/10/09 05:32:48;;;;;;;22.50;6.45;;;15.00;56.40;;;;;;5073307;28;20012;-81
2023/10/09 05:35:17;;;;;;;23.60;7.95;;;15.10;56.50;;;;;;5054628;28;20040;-81
2023/10/09 05:37:43;;;;;;;20.83;6.88;;;15.00;56.10;;;;;;5054458;28;20056;-76
2023/10/09 05:42:44;;;;;;;20.63;6.43;;;15.10;56.40;;;;;;5072867;28;20056;-76
2023/10/09 06:06:18;;;;;;;20.20;5.72;;;15.40;56.40;;;;;;5075513;28;20385;-74
2023/10/09 06:14:13;;;;;;;23.00;5.90;;;15.80;57.80;;;;;;5075990;28;20096;-76
2023/10/09 06:19:45;;;;;;;25.50;6.18;;;16.00;55.70;;;;;;5042034;28;20147;-76
2023/10/09 06:24:57;;;;;;;21.38;5.78;;;16.00;56.00;;;;;;5078985;28;20110;-78
2023/10/09 06:27:56;;;;;;;21.20;6.00;;;16.10;55.80;;;;;;5075547;28;20094;-77
2023/10/09 06:32:49;;;;;;;22.73;5.43;;;16.20;55.80;;;;;;5075696;28;20025;-78
2023/10/09 06:35:30;;;;;;;21.77;5.60;;;16.20;55.20;;;;;;5075602;28;20112;-77
2023/10/09 06:43:52;;;;;;;19.63;4.88;;;16.40;53.40;;;;;;5075744;28;20055;-73
2023/10/09 06:47:07;;;;;;;18.10;4.40;;;16.60;53.50;;;;;;5067195;28;20039;-78
2023/10/09 06:48:57;;;;;;;11.82;4.90;;;16.60;53.50;;;;;;5066072;28;20035;-73
2023/10/09 06:57:13;;;;;;;17.92;5.20;;;16.80;53.20;;;;;;5074926;28;20016;-76
2023/10/09 06:59:21;;;;;;;16.38;4.93;;;16.90;53.10;;;;;;5074208;28;20031;-74
2023/10/09 07:01:51;;;;;;;;;;;17.00;52.30;;;;;;5057242;28;20025;-78
2023/10/09 07:04:19;;;;;;;22.40;4.70;;;17.10;52.40;;;;;;5056689;28;19943;-76
2023/10/09 07:14:32;;;;;;;19.70;4.43;;;17.40;52.40;;;;;;5073987;28;20441;-76
2023/10/09 07:17:15;;;;;;;18.63;4.75;;;17.60;52.30;;;;;;5072829;28;20435;-73
2023/10/09 07:22:23;;;;;;;21.70;5.50;;;17.90;51.60;;;;;;5074302;28;20457;-78
2023/10/09 07:24:58;;;;;;;19.85;5.45;;;17.90;51.50;;;;;;5072070;28;20353;-74
2023/10/09 07:38:28;;;;;;;22.10;4.82;;;18.20;51.80;;;;;;5074190;28;20025;-75
2023/10/09 07:40:56;;;;;;;21.80;4.78;;;18.30;52.20;;;;;;5077596;28;20040;-78
2023/10/09 07:43:45;;;;;;;18.83;4.97;;;18.40;52.40;;;;;;5074006;28;20023;-77
2023/10/09 07:49:14;;;;;;;18.30;5.18;;;18.60;52.50;;;;;;5073810;28;20027;-78
2023/10/09 07:51:43;;;;;;;23.38;4.97;;;18.70;52.90;;;;;;5073378;28;20021;-75
2023/10/09 07:54:14;;;;;;;23.98;5.43;;;18.70;52.70;;;;;;5073491;28;20028;-73
2023/10/09 07:56:43;;;;;;;17.92;5.93;;;18.80;52.50;;;;;;5055619;28;20123;-74
2023/10/09 07:59:12;;;;;;;21.38;5.28;;;18.90;52.50;;;;;;5073543;28;20017;-78
2023/10/09 08:01:52;;;;;;;18.45;5.88;;;19.00;52.60;;;;;;5073866;28;20038;-73
2023/10/09 08:04:20;;;;;;;20.05;5.07;;;19.10;52.40;;;;;;5036098;28;20132;-74
2023/10/09 08:06:47;;;;;;;19.67;5.35;;;19.20;51.70;;;;;;5035737;28;20037;-80
2023/10/09 08:19:53;;;;;;;15.48;4.57;;;19.70;51.90;;;;;;5053910;28;20090;-77
2023/10/09 08:24:58;;;;;;;34.40;6.53;;;20.00;51.50;;;;;;5053068;28;20025;-75
2023/10/09 08:33:39;;;;;;;18.27;4.65;;;20.30;53.00;;;;;;5024489;28;20056;-76
2023/10/09 08:35:55;;;;;;;19.00;5.32;;;20.30;53.60;;;;;;5052844;28;20416;-76
2023/10/09 08:38:23;;;;;;;17.83;4.43;;;20.40;53.50;;;;;;5053359;28;20029;-73
2023/10/09 08:40:50;;;;;;;22.30;5.30;;;20.50;51.10;;;;;;5052875;28;20025;-75
2023/10/09 08:43:19;;;;;;;22.88;5.57;;;20.60;50.90;;;;;;5051421;28;20397;-74
2023/10/09 08:46:03;;;;;;;34.20;5.68;;;20.60;50.40;;;;;;5051658;28;20060;-74
2023/10/09 08:48:30;;;;;;;12.63;4.50;;;20.70;46.30;;;;;;5052677;28;20107;-72
2023/10/09 08:50:56;;;;;;;18.50;4.80;;;20.90;47.40;;;;;;5035024;28;20478;-73
2023/10/09 08:53:31;;;;;;;16.92;4.03;;;21.00;47.90;;;;;;5052699;28;20029;-75
2023/10/09 08:55:57;;;;;;;;;;;21.10;47.80;;;;;;5052969;28;20036;-74
2023/10/09 08:58:36;;;;;;;26.15;5.65;;;21.20;47.80;;;;;;5053134;28;19909;-71
2023/10/09 09:01:02;;;;;;;24.38;5.47;;;21.30;47.90;;;;;;5053235;28;20036;-72
2023/10/09 09:03:43;;;;;;;29.92;5.43;;;21.40;47.30;;;;;;5077333;28;20408;-71
2023/10/09 09:06:09;;;;;;;29.63;5.55;;;21.40;45.40;;;;;;5092571;28;20035;-72
2023/10/09 09:08:36;;;;;;;21.10;5.00;;;21.50;41.70;;;;;;5092471;28;20032;-72
2023/10/09 09:11:12;;;;;;;19.33;5.32;;;21.60;37.50;;;;;;5092594;28;20024;-72
2023/10/09 09:13:51;;;;;;;18.48;4.88;;;21.80;36.50;;;;;;5092768;28;20379;-72
2023/10/09 09:16:21;;;;;;;29.67;5.93;;;21.90;36.40;;;;;;5092244;28;20391;-74
2023/10/09 09:19:04;;;;;;;27.00;4.78;;;22.00;36.20;;;;;;5092974;28;20085;-77
2023/10/09 09:21:37;;;;;;;27.42;5.38;;;22.00;35.40;;;;;;5092913;28;20020;-75
2023/10/09 09:24:06;;;;;;;22.77;4.93;;;22.10;36.00;;;;;;5093158;28;20032;-76
2023/10/09 09:26:44;;;;;;;30.20;5.80;;;22.20;35.50;;;;;;5074543;28;20024;-73
2023/10/09 09:29:11;;;;;;;17.50;5.07;;;22.30;35.80;;;;;;5074467;28;20077;-74
2023/10/09 09:31:41;;;;;;;25.15;4.88;;;22.40;35.90;;;;;;5092574;28;20062;-76
2023/10/09 09:34:16;;;;;;;19.95;5.00;;;22.50;35.20;;;;;;5077740;28;20028;-75
2023/10/09 09:36:53;;;;;;;31.83;6.05;;;22.50;35.60;;;;;;5078658;28;20044;-74
2023/10/09 09:39:27;;;;;;;26.45;5.32;;;22.50;35.30;;;;;;5078379;28;20032;-72
2023/10/09 09:42:07;;;;;;;27.20;5.60;;;22.50;35.00;;;;;;5096667;28;20055;-75
2023/10/09 09:44:43;;;;;;;27.85;5.78;;;22.60;34.80;;;;;;5096495;28;20062;-73
2023/10/09 09:47:12;;;;;;;22.25;6.05;;;22.60;34.70;;;;;;5078168;28;20016;-75
2023/10/09 09:49:41;;;;;;;27.52;6.45;;;22.70;34.60;;;;;;5096287;28;20020;-73
2023/10/09 09:52:12;;;;;;;31.52;6.50;;;22.70;34.80;;;;;;5095856;28;20051;-72
2023/10/09 09:54:39;;;;;;;24.17;5.32;;;22.70;34.90;;;;;;5095916;28;20082;-74
2023/10/09 09:57:10;;;;;;;26.10;4.93;;;22.70;34.70;;;;;;5086909;28;20027;-72
2023/10/09 09:59:54;;;;;;;22.08;4.85;;;22.80;34.30;;;;;;5057174;28;20029;-76
2023/10/09 10:02:40;;;;;;;23.65;5.13;;;22.90;34.30;;;;;;5054446;28;20128;-75
2023/10/09 10:05:11;;;;;;;23.40;5.38;;;22.90;34.20;;;;;;5055702;28;20031;-75
2023/10/09 10:07:43;;;;;;;28.50;5.35;;;23.00;34.50;;;;;;5038109;28;20081;-78
2023/10/09 10:10:39;;;;;;;21.80;4.88;;;23.20;33.40;;;;;;5037733;28;20021;-75
2023/10/09 10:13:05;;;;;;;27.35;5.55;;;23.30;33.20;;;;;;5037948;28;20048;-76
2023/10/09 10:16:00;;;;;;;18.15;4.43;;;23.40;33.40;;;;;;5037767;28;20469;-76
2023/10/09 10:18:32;;;;;;;24.55;5.55;;;23.70;33.40;;;;;;5057315;28;20079;-76
2023/10/09 10:24:09;;;;;;;28.90;6.43;;;23.90;32.80;;;;;;5055321;28;20039;-74
2023/10/09 10:26:36;;;;;;;20.60;5.65;;;24.00;33.20;;;;;;5037715;28;20120;-73
2023/10/09 10:29:22;;;;;;;27.98;5.43;;;24.10;33.30;;;;;;5037113;28;20025;-71
2023/10/09 10:32:08;;;;;;;30.52;6.18;;;24.00;32.60;;;;;;5055162;28;20116;-74
2023/10/09 10:34:55;;;;;;;18.35;4.93;;;24.00;33.60;;;;;;5036664;28;20118;-73
2023/10/09 10:38:00;;;;;;;21.95;4.78;;;23.90;33.30;;;;;;5037272;28;20033;-72
2023/10/09 10:40:38;;;;;;;21.80;5.38;;;24.00;33.30;;;;;;5037013;28;20017;-73
2023/10/09 10:43:19;;;;;;;24.30;5.20;;;24.20;33.30;;;;;;5054933;28;20108;-75
2023/10/09 10:45:45;;;;;;;19.05;5.07;;;24.30;32.30;;;;;;5036145;28;20385;-77
2023/10/09 10:48:37;;;;;;;26.10;5.38;;;24.40;32.20;;;;;;5056442;28;20021;-74
2023/10/09 10:51:03;;;;;;;15.40;4.65;;;24.50;32.10;;;;;;5037385;28;20044;-74
2023/10/09 10:53:47;;;;;;;26.92;4.90;;;24.40;32.50;;;;;;5054593;28;20029;-72
2023/10/09 10:59:41;;;;;;;24.23;5.25;;;24.30;32.70;;;;;;5055450;28;20431;-79
2023/10/09 11:01:57;;;;;;;22.17;4.80;;;24.20;32.00;;;;;;5037710;28;20107;-81
2023/10/09 11:07:09;;;;;;;23.27;5.55;;;24.50;31.80;;;;;;5055193;28;20029;-78
2023/10/09 11:12:41;;;;;;;15.75;5.05;;;25.40;32.10;;;;;;5054225;28;20380;-79
2023/10/09 11:18:07;;;;;;;27.95;6.00;;;26.50;29.20;;;;;;5054513;28;20111;-73
2023/10/09 11:20:53;;;;;;;31.42;6.13;;;26.60;29.50;;;;;;5054177;28;20036;-72
2023/10/09 11:23:29;;;;;;;24.15;4.93;;;25.80;28.40;;;;;;5036263;28;20023;-75
2023/10/09 11:26:07;;;;;;;26.40;5.10;;;25.60;28.60;;;;;;5036088;28;20049;-74
2023/10/09 11:28:48;;;;;;;18.48;4.95;;;25.50;29.80;;;;;;5036084;28;20025;-76
2023/10/09 11:31:17;;;;;;;30.55;5.85;;;25.30;30.80;;;;;;5053630;28;20428;-77
2023/10/09 11:33:53;;;;;;;30.05;6.00;;;25.00;30.10;;;;;;5053834;28;20096;-74
2023/10/09 11:36:32;;;;;;;20.02;5.50;;;24.80;29.80;;;;;;5056797;28;20058;-75
2023/10/09 11:39:17;;;;;;;25.27;5.32;;;24.60;31.00;;;;;;5036513;28;20036;-75
2023/10/09 11:41:44;;;;;;;30.63;7.13;;;24.40;31.60;;;;;;5053969;28;20031;-74
2023/10/09 11:44:18;;;;;;;29.00;5.97;;;24.40;31.10;;;;;;5036081;28;20033;-74
2023/10/09 11:52:34;;;;;;;26.13;6.15;;;24.30;32.10;;;;;;5053881;28;20021;-75
2023/10/09 11:55:00;;;;;;;30.13;7.13;;;24.30;32.80;;;;;;5035841;28;20040;-73
2023/10/09 11:57:30;;;;;;;33.13;6.28;;;24.30;31.80;;;;;;5053611;28;20143;-73
2023/10/09 12:00:10;;;;;;;26.50;6.55;;;24.10;31.40;;;;;;5053672;28;20429;-74
2023/10/09 12:02:43;;;;;;;30.40;6.22;;;24.10;30.40;;;;;;5035846;28;20045;-73
2023/10/09 12:05:16;;;;;;;26.58;6.55;;;24.20;29.40;;;;;;5053334;28;20032;-73
2023/10/09 12:07:54;;;;;;;30.58;6.85;;;24.00;30.70;;;;;;5053124;28;20479;-73
2023/10/09 12:10:26;;;;;;;30.17;6.82;;;23.80;30.20;;;;;;5053169;28;20024;-75
2023/10/09 12:12:53;;;;;;;32.85;6.10;;;23.70;29.70;;;;;;5035569;28;20407;-74
2023/10/09 12:15:19;;;;;;;26.77;6.03;;;23.70;30.30;;;;;;5035399;28;20473;-74
2023/10/09 12:17:47;;;;;;;32.90;7.65;;;23.70;30.10;;;;;;5053231;28;20028;-76
2023/10/09 12:20:29;;;;;;;19.17;6.50;;;23.60;30.30;;;;;;5035461;28;20082;-75
2023/10/09 12:22:57;;;;;;;26.65;5.95;;;23.60;30.90;;;;;;5053482;28;20025;-73
2023/10/09 12:25:23;;;;;;;31.33;6.03;;;23.50;31.30;;;;;;5053444;28;20036;-78
2023/10/09 12:27:49;;;;;;;23.23;5.75;;;23.60;31.50;;;;;;5035244;28;20025;-74
2023/10/09 12:30:15;;;;;;;31.60;6.55;;;23.60;31.70;;;;;;5035062;28;20087;-75
2023/10/09 12:32:41;;;;;;;20.95;5.22;;;23.70;32.00;;;;;;5035361;28;20469;-76
2023/10/09 12:35:17;;;;;;;28.10;6.28;;;23.80;31.90;;;;;;5035055;28;20103;-76
2023/10/09 12:37:43;;;;;;;24.02;6.57;;;23.80;31.20;;;;;;5035340;28;20071;-74
2023/10/09 12:40:10;;;;;;;24.83;6.18;;;23.70;31.20;;;;;;5035339;28;20029;-76
2023/10/09 12:42:36;;;;;;;26.85;5.47;;;23.70;30.80;;;;;;5052948;28;20017;-77
2023/10/09 12:45:08;;;;;;;35.05;6.25;;;23.60;31.40;;;;;;5052797;28;20492;-75
2023/10/09 12:47:37;;;;;;;32.33;7.07;;;23.60;31.60;;;;;;5035555;28;20411;-77
2023/10/09 12:50:13;;;;;;;33.45;6.13;;;23.50;31.20;;;;;;5035376;28;20542;-78
2023/10/09 12:52:39;;;;;;;29.38;5.80;;;23.40;31.80;;;;;;5053831;28;20029;-75
2023/10/09 12:55:07;;;;;;;27.95;5.53;;;23.30;32.60;;;;;;5054688;28;20036;-75
2023/10/09 12:57:33;;;;;;;26.13;6.07;;;23.30;32.70;;;;;;5036481;28;20025;-76
2023/10/09 12:59:59;;;;;;;29.58;6.25;;;23.30;32.70;;;;;;5035458;28;20502;-76
2023/10/09 13:02:30;;;;;;;22.08;5.18;;;23.30;32.80;;;;;;5033532;28;20124;-81
2023/10/09 13:05:00;;;;;;;24.23;5.78;;;23.30;33.10;;;;;;5035113;28;20082;-77
2023/10/09 13:07:25;;;;;;;20.77;5.32;;;23.30;33.10;;;;;;5053298;28;20028;-74
2023/10/09 13:10:09;;;;;;;24.88;5.65;;;23.30;33.40;;;;;;5057011;28;20038;-76
2023/10/09 13:12:44;;;;;;;22.23;5.18;;;23.40;33.50;;;;;;5056950;28;20515;-75
2023/10/09 13:15:10;;;;;;;21.48;4.88;;;23.40;33.50;;;;;;5056681;28;20079;-78
2023/10/09 13:17:37;;;;;;;18.13;4.82;;;23.40;34.00;;;;;;5057166;28;20033;-78
2023/10/09 13:20:12;;;;;;;20.30;5.38;;;23.50;33.70;;;;;;5040224;28;20038;-78
2023/10/09 13:22:38;;;;;;;15.40;5.03;;;23.60;34.00;;;;;;5057608;28;20017;-78
2023/10/09 13:25:05;;;;;;;17.60;4.70;;;23.60;34.50;;;;;;5039411;28;20029;-79
2023/10/09 13:27:34;;;;;;;18.92;4.85;;;23.60;34.50;;;;;;5039063;28;20025;-76
2023/10/09 13:30:07;;;;;;;24.08;5.30;;;23.70;34.60;;;;;;5056883;28;20108;-79
2023/10/09 13:32:35;;;;;;;16.98;4.80;;;23.80;34.70;;;;;;5039124;28;20021;-79
2023/10/09 13:35:03;;;;;;;15.48;4.88;;;24.00;34.80;;;;;;5038831;28;20121;-78
2023/10/09 13:37:30;;;;;;;18.63;5.97;;;24.30;34.60;;;;;;5056696;28;20052;-76
2023/10/09 13:39:57;;;;;;;14.35;5.05;;;24.80;34.20;;;;;;5056568;28;20028;-75
2023/10/09 13:42:25;;;;;;;16.70;5.05;;;25.30;33.80;;;;;;5038652;28;20020;-79
2023/10/09 13:44:53;;;;;;;18.13;5.35;;;25.70;33.20;;;;;;5056694;28;20024;-81
2023/10/09 13:47:20;;;;;;;17.58;4.72;;;26.00;32.60;;;;;;5038556;28;20484;-79
2023/10/09 13:49:50;;;;;;;17.73;4.90;;;26.60;31.40;;;;;;5056431;28;20036;-77
2023/10/09 13:52:21;;;;;;;24.15;4.95;;;27.20;30.70;;;;;;5056680;28;20021;-75
2023/10/09 13:54:50;;;;;;;22.30;4.90;;;27.80;28.80;;;;;;5038361;28;20036;-78
2023/10/09 13:57:16;;;;;;;21.88;4.90;;;28.10;27.60;;;;;;5056240;28;20025;-80
2023/10/09 13:59:48;;;;;;;26.42;5.47;;;28.20;27.30;;;;;;5022172;28;20389;-80
2023/10/09 14:02:17;;;;;;;19.08;4.60;;;28.20;26.80;;;;;;5040527;28;20021;-80
2023/10/09 14:04:43;;;;;;;19.80;5.47;;;28.30;25.70;;;;;;5057988;28;20427;-79
2023/10/09 14:07:09;;;;;;;23.67;5.35;;;28.20;26.00;;;;;;5076440;28;20025;-78
2023/10/09 14:09:38;;;;;;;25.52;5.80;;;27.90;25.80;;;;;;5076482;28;20503;-80
2023/10/09 14:12:09;;;;;;;14.70;4.75;;;27.80;26.50;;;;;;5077740;28;20024;-80
2023/10/09 14:14:49;;;;;;;19.90;5.50;;;27.90;27.00;;;;;;5062581;28;20024;-77
2023/10/09 14:17:19;;;;;;;19.23;5.35;;;28.00;26.00;;;;;;5075843;28;20066;-79
2023/10/09 14:19:47;;;;;;;28.48;5.95;;;27.80;26.60;;;;;;5074484;28;20021;-77
2023/10/09 14:22:24;;;;;;;19.60;4.90;;;27.40;27.20;;;;;;5057790;28;20119;-79
2023/10/09 14:24:56;;;;;;;24.02;4.68;;;27.00;28.90;;;;;;5075669;28;20021;-78
2023/10/09 14:27:29;;;;;;;30.95;5.53;;;26.70;30.00;;;;;;5075610;28;20016;-76
2023/10/09 14:29:56;;;;;;;21.70;4.63;;;26.80;31.20;;;;;;5075368;28;20035;-80
2023/10/09 14:32:28;;;;;;;27.08;5.63;;;27.40;31.00;;;;;;5075471;28;20353;-79
2023/10/09 14:34:55;;;;;;;31.88;5.53;;;28.10;29.00;;;;;;5075565;28;20107;-78
2023/10/09 14:37:20;;;;;;;25.13;5.10;;;28.30;29.20;;;;;;5075345;28;20027;-79
2023/10/09 14:39:48;;;;;;;21.08;5.22;;;28.90;28.20;;;;;;5075328;28;20025;-80
2023/10/09 14:42:17;;;;;;;22.10;5.43;;;28.70;27.40;;;;;;5075608;28;20388;-78
2023/10/09 14:44:45;;;;;;;20.10;4.90;;;28.30;27.40;;;;;;5075515;28;20051;-84
2023/10/09 14:47:11;;;;;;;20.38;5.03;;;27.80;28.70;;;;;;5068330;28;20017;-79
2023/10/09 14:49:47;;;;;;;17.35;5.55;;;27.70;29.80;;;;;;5076725;28;20027;-81
2023/10/09 14:52:17;;;;;;;20.98;6.90;;;27.40;30.90;;;;;;5067815;28;20096;-78
2023/10/09 14:54:47;;;;;;;22.35;5.30;;;27.00;31.00;;;;;;5058933;28;20052;-78
2023/10/09 14:57:13;;;;;;;29.52;6.28;;;26.60;31.20;;;;;;5066788;28;20021;-72
2023/10/09 14:59:39;;;;;;;16.40;5.03;;;26.00;34.40;;;;;;5047864;28;20025;-72
2023/10/09 15:02:06;;;;;;;16.60;5.03;;;25.70;34.90;;;;;;5069370;28;20372;-74
2023/10/09 15:04:35;;;;;;;26.63;6.53;;;25.40;36.00;;;;;;5056166;28;20045;-73
2023/10/09 15:07:01;;;;;;;21.70;5.72;;;25.20;37.30;;;;;;5056365;28;20016;-75
2023/10/09 15:09:31;;;;;;;21.35;5.53;;;24.90;38.30;;;;;;5071183;28;20070;-72
2023/10/09 15:11:56;;;;;;;16.85;5.20;;;24.70;39.70;;;;;;5055876;28;20031;-72
2023/10/09 15:14:23;;;;;;;25.48;5.30;;;24.40;41.30;;;;;;5073578;28;20384;-72
2023/10/09 15:16:49;;;;;;;23.77;5.57;;;24.30;43.20;;;;;;5073775;28;20016;-72
2023/10/09 15:19:16;;;;;;;15.32;5.15;;;24.20;43.20;;;;;;5073386;28;20048;-75
2023/10/09 15:21:45;;;;;;;24.05;5.85;;;24.10;43.90;;;;;;5055661;28;20511;-74
2023/10/09 15:24:19;;;;;;;21.52;6.00;;;24.00;44.50;;;;;;5073765;28;20104;-72
2023/10/09 15:26:57;;;;;;;16.58;6.28;;;23.80;45.40;;;;;;5073825;28;20039;-73
2023/10/09 15:29:31;;;;;;;17.50;5.60;;;23.80;46.40;;;;;;5074078;28;20090;-72
2023/10/09 15:32:04;;;;;;;29.30;5.53;;;23.80;46.60;;;;;;5074043;28;20048;-73
2023/10/09 15:34:34;;;;;;;22.00;5.43;;;24.20;46.00;;;;;;5076129;28;20038;-73
2023/10/09 15:37:00;;;;;;;17.10;5.03;;;24.60;44.50;;;;;;5073903;28;20483;-73